createdAt,value
2023-05-07T00:01:20.326Z,64.54
2023-05-07T00:03:23.238Z,64.64
2023-05-07T00:05:25.917Z,64.49
2023-05-07T00:07:28.454Z,64.52
2023-05-07T00:09:32.358Z,64.64
2023-05-07T00:11:37.275Z,64.59
2023-05-07T00:13:40.034Z,64.74
2023-05-07T00:15:42.676Z,64.88
2023-05-07T00:17:45.469Z,64.86
2023-05-07T00:19:48.632Z,64.84
2023-05-07T00:21:51.216Z,64.86
2023-05-07T00:23:53.838Z,64.83
2023-05-07T00:25:58.080Z,64.05
2023-05-07T00:28:04.604Z,64.32
2023-05-07T00:30:08.827Z,64.50
2023-05-07T00:32:11.726Z,64.55
2023-05-07T00:34:14.349Z,65.03
2023-05-07T00:36:16.974Z,64.93
2023-05-07T00:38:19.574Z,65.19
2023-05-07T00:40:22.151Z,65.14
2023-05-07T00:42:26.093Z,65.23
2023-05-07T00:44:29.422Z,64.91
2023-05-07T00:46:33.245Z,64.92
2023-05-07T00:48:35.892Z,65.30
2023-05-07T00:50:38.481Z,65.31
2023-05-07T00:52:42.528Z,65.11
2023-05-07T00:54:45.301Z,65.38
2023-05-07T00:56:48.002Z,65.40
2023-05-07T00:58:52.122Z,65.40
2023-05-07T01:00:54.824Z,65.38
2023-05-07T01:02:57.725Z,65.49
2023-05-07T01:05:02.432Z,65.19
2023-05-07T01:07:06.688Z,65.40
2023-05-07T01:09:10.161Z,65.39
2023-05-07T01:11:13.403Z,65.34
2023-05-07T01:13:17.024Z,65.32
2023-05-07T01:15:21.119Z,65.35
2023-05-07T01:17:23.840Z,65.40
2023-05-07T01:19:27.561Z,65.31
2023-05-07T01:21:34.798Z,65.42
2023-05-07T01:23:40.621Z,65.74
2023-05-07T01:25:43.180Z,65.58
2023-05-07T01:27:45.805Z,65.49
2023-05-07T01:29:48.372Z,65.61
2023-05-07T01:31:53.801Z,65.76
2023-05-07T01:33:58.099Z,65.80
2023-05-07T01:36:03.270Z,65.04
2023-05-07T01:38:07.138Z,65.27
2023-05-07T01:40:12.224Z,65.55
2023-05-07T01:42:15.066Z,65.69
2023-05-07T01:44:18.923Z,65.73
2023-05-07T01:46:22.197Z,65.69
2023-05-07T01:48:26.181Z,65.90
2023-05-07T01:50:29.631Z,65.69
2023-05-07T01:52:32.905Z,65.78
2023-05-07T01:54:35.503Z,65.18
2023-05-07T01:56:39.429Z,65.58
2023-05-07T01:58:42.027Z,66.04
2023-05-07T02:00:44.620Z,66.06
2023-05-07T02:02:47.425Z,66.05
2023-05-07T02:04:50.126Z,66.02
2023-05-07T02:06:53.711Z,66.16
2023-05-07T02:08:56.265Z,66.18
2023-05-07T02:10:58.848Z,66.31
2023-05-07T02:13:03.230Z,66.31
2023-05-07T02:15:06.565Z,66.43
2023-05-07T02:17:09.789Z,66.58
2023-05-07T02:19:12.344Z,66.56
2023-05-07T02:21:14.909Z,66.60
2023-05-07T02:23:17.494Z,66.58
2023-05-07T02:25:20.087Z,66.22
2023-05-07T02:27:22.773Z,66.58
2023-05-07T02:29:26.666Z,66.67
2023-05-07T02:31:29.281Z,66.53
2023-05-07T02:33:31.890Z,66.33
2023-05-07T02:35:34.448Z,66.34
2023-05-07T02:37:37.050Z,66.29
2023-05-07T02:39:39.634Z,66.30
2023-05-07T02:41:42.182Z,66.16
2023-05-07T02:43:44.859Z,66.07
2023-05-07T02:45:48.852Z,65.96
2023-05-07T02:47:51.437Z,65.79
2023-05-07T02:49:54.012Z,65.99
2023-05-07T02:51:56.839Z,66.05
2023-05-07T02:53:59.423Z,66.34
2023-05-07T02:56:02.781Z,66.14
2023-05-07T02:58:05.361Z,66.43
2023-05-07T03:00:15.504Z,66.36
2023-05-07T03:02:19.396Z,66.33
2023-05-07T03:04:22.346Z,66.14
2023-05-07T03:06:24.951Z,66.21
2023-05-07T03:08:27.543Z,66.08
2023-05-07T03:10:30.157Z,65.50
2023-05-07T03:12:33.252Z,65.16
2023-05-07T03:14:36.042Z,65.33
2023-05-07T03:16:38.616Z,65.95
2023-05-07T03:18:42.706Z,66.49
2023-05-07T03:20:45.322Z,66.68
2023-05-07T03:22:48.019Z,66.98
2023-05-07T03:24:50.573Z,67.01
2023-05-07T03:26:53.124Z,67.13
2023-05-07T03:28:57.186Z,66.88
2023-05-07T03:30:59.869Z,67.14
2023-05-07T03:33:02.487Z,67.24
2023-05-07T03:35:07.129Z,67.55
2023-05-07T03:37:09.675Z,67.64
2023-05-07T03:39:12.343Z,67.67
2023-05-07T03:41:15.010Z,67.16
2023-05-07T03:43:17.643Z,67.16
2023-05-07T03:45:20.454Z,66.84
2023-05-07T03:47:23.021Z,66.92
2023-05-07T03:49:25.647Z,66.83
2023-05-07T03:51:29.563Z,67.00
2023-05-07T03:53:32.122Z,67.12
2023-05-07T03:55:34.692Z,67.13
2023-05-07T03:57:40.109Z,67.50
2023-05-07T03:59:42.685Z,67.89
2023-05-07T04:01:45.876Z,68.05
2023-05-07T04:03:48.711Z,68.04
2023-05-07T04:05:51.477Z,67.72
2023-05-07T04:07:55.476Z,67.53
2023-05-07T04:09:58.026Z,67.53
2023-05-07T04:12:00.625Z,67.36
2023-05-07T04:14:03.287Z,67.34
2023-05-07T04:16:07.097Z,67.28
2023-05-07T04:18:09.810Z,67.10
2023-05-07T04:20:16.897Z,67.06
2023-05-07T04:22:19.467Z,67.23
2023-05-07T04:24:23.735Z,67.31
2023-05-07T04:26:26.364Z,67.24
2023-05-07T04:28:28.948Z,67.31
2023-05-07T04:30:31.602Z,67.13
2023-05-07T04:32:34.164Z,67.09
2023-05-07T04:34:36.727Z,67.01
2023-05-07T04:36:39.788Z,67.03
2023-05-07T04:38:42.663Z,67.10
2023-05-07T04:40:47.826Z,67.11
2023-05-07T04:42:50.408Z,67.15
2023-05-07T04:44:55.727Z,67.26
2023-05-07T04:46:58.460Z,67.50
2023-05-07T04:49:01.069Z,67.49
2023-05-07T04:51:03.674Z,67.52
2023-05-07T04:53:06.279Z,67.90
2023-05-07T04:55:09.887Z,68.00
2023-05-07T04:57:14.231Z,68.21
2023-05-07T04:59:16.804Z,68.30
2023-05-07T05:01:19.417Z,68.49
2023-05-07T05:03:22.200Z,68.65
2023-05-07T05:05:24.830Z,68.87
2023-05-07T05:07:27.423Z,68.95
2023-05-07T05:09:30.005Z,69.09
2023-05-07T05:11:32.597Z,69.31
2023-05-07T05:13:36.517Z,69.14
2023-05-07T05:15:39.061Z,69.09
2023-05-07T05:17:41.774Z,69.19
2023-05-07T05:19:44.436Z,69.26
2023-05-07T05:21:47.033Z,68.16
2023-05-07T05:23:49.624Z,68.24
2023-05-07T05:25:52.171Z,68.64
2023-05-07T05:27:54.767Z,68.91
2023-05-07T05:29:58.680Z,68.93
2023-05-07T05:32:01.267Z,68.92
2023-05-07T05:34:04.483Z,68.95
2023-05-07T05:36:07.893Z,68.63
2023-05-07T05:38:10.667Z,68.82
2023-05-07T05:40:14.056Z,68.84
2023-05-07T05:42:16.623Z,68.82
2023-05-07T05:44:19.208Z,67.80
2023-05-07T05:46:23.163Z,68.22
2023-05-07T05:48:25.890Z,68.46
2023-05-07T05:50:28.546Z,68.50
2023-05-07T05:52:31.243Z,68.61
2023-05-07T05:54:33.792Z,68.56
2023-05-07T05:56:36.438Z,68.75
2023-05-07T05:58:39.065Z,68.81
2023-05-07T06:00:41.848Z,68.85
2023-05-07T06:02:45.999Z,68.95
2023-05-07T06:04:48.678Z,69.13
2023-05-07T06:06:51.276Z,69.28
2023-05-07T06:08:53.851Z,69.31
2023-05-07T06:10:56.416Z,69.38
2023-05-07T06:12:59.012Z,69.46
2023-05-07T06:15:02.393Z,69.31
2023-05-07T06:17:05.415Z,69.21
2023-05-07T06:19:09.473Z,69.09
2023-05-07T06:21:12.251Z,69.02
2023-05-07T06:23:17.929Z,69.12
2023-05-07T06:25:23.504Z,69.06
2023-05-07T06:27:26.133Z,69.17
2023-05-07T06:29:28.716Z,69.22
2023-05-07T06:31:33.277Z,69.06
2023-05-07T06:33:36.354Z,69.38
2023-05-07T06:35:40.388Z,67.76
2023-05-07T06:37:43.658Z,67.71
2023-05-07T06:39:46.244Z,68.00
2023-05-07T06:41:48.805Z,68.30
2023-05-07T06:43:51.404Z,68.58
2023-05-07T06:45:54.006Z,67.66
2023-05-07T06:47:56.641Z,67.93
2023-05-07T06:49:59.201Z,68.31
2023-05-07T06:52:03.093Z,68.42
2023-05-07T06:54:06.271Z,68.34
2023-05-07T06:56:08.900Z,68.36
2023-05-07T06:58:11.465Z,67.59
2023-05-07T07:00:15.460Z,67.36
2023-05-07T07:02:18.547Z,67.12
2023-05-07T07:04:23.327Z,67.28
2023-05-07T07:06:26.470Z,67.54
2023-05-07T07:08:30.360Z,67.80
2023-05-07T07:10:32.952Z,68.09
2023-05-07T07:12:35.552Z,68.35
2023-05-07T07:14:38.129Z,67.49
2023-05-07T07:16:40.982Z,67.53
2023-05-07T07:18:43.652Z,67.79
2023-05-07T07:20:46.596Z,67.20
2023-05-07T07:22:49.162Z,67.90
2023-05-07T07:24:53.105Z,68.10
2023-05-07T07:26:56.607Z,68.00
2023-05-07T07:28:59.198Z,67.58
2023-05-07T07:31:01.830Z,68.10
2023-05-07T07:33:04.625Z,68.25
2023-05-07T07:35:08.490Z,67.91
2023-05-07T07:37:11.124Z,67.70
2023-05-07T07:39:13.664Z,67.59
2023-05-07T07:41:17.569Z,66.66
2023-05-07T07:43:20.136Z,66.90
2023-05-07T07:45:23.153Z,66.91
2023-05-07T07:47:25.762Z,66.55
2023-05-07T07:49:28.388Z,66.79
2023-05-07T07:51:31.433Z,66.71
2023-05-07T07:53:34.029Z,66.68
2023-05-07T07:55:40.641Z,66.63
2023-05-07T07:57:44.631Z,66.67
2023-05-07T07:59:47.260Z,66.75
2023-05-07T08:01:53.366Z,66.72
2023-05-07T08:03:58.942Z,66.85
2023-05-07T08:06:01.568Z,66.58
2023-05-07T08:08:04.320Z,66.96
2023-05-07T08:10:07.397Z,67.09
2023-05-07T08:12:10.095Z,67.16
2023-05-07T08:14:14.357Z,67.08
2023-05-07T08:16:17.030Z,67.25
2023-05-07T08:18:19.588Z,67.20
2023-05-07T08:20:22.431Z,66.95
2023-05-07T08:22:24.991Z,66.67
2023-05-07T08:24:27.571Z,66.37
2023-05-07T08:26:30.138Z,66.45
2023-05-07T08:28:32.717Z,66.40
2023-05-07T08:30:36.666Z,66.30
2023-05-07T08:32:39.287Z,66.60
2023-05-07T08:34:41.865Z,66.48
2023-05-07T08:36:48.049Z,66.49
2023-05-07T08:38:50.611Z,66.62
2023-05-07T08:40:53.315Z,66.49
2023-05-07T08:42:57.089Z,66.66
2023-05-07T08:45:01.777Z,66.61
2023-05-07T08:47:08.779Z,66.55
2023-05-07T08:49:11.400Z,66.71
2023-05-07T08:51:15.313Z,66.95
2023-05-07T08:53:18.592Z,67.07
2023-05-07T08:55:22.103Z,67.16
2023-05-07T08:57:25.399Z,67.14
2023-05-07T08:59:28.174Z,67.19
2023-05-07T09:01:31.041Z,67.12
2023-05-07T09:03:35.412Z,67.17
2023-05-07T09:05:37.978Z,66.86
2023-05-07T09:07:40.548Z,66.64
2023-05-07T09:09:43.099Z,66.07
2023-05-07T09:11:45.650Z,66.17
2023-05-07T09:13:48.248Z,66.33
2023-05-07T09:15:51.166Z,66.40
2023-05-07T09:17:53.766Z,66.30
2023-05-07T09:19:57.700Z,66.60
2023-05-07T09:22:03.874Z,66.58
2023-05-07T09:24:07.149Z,66.41
2023-05-07T09:26:12.833Z,66.42
2023-05-07T09:28:15.436Z,66.13
2023-05-07T09:30:18.215Z,64.57
2023-05-07T09:32:20.934Z,64.91
2023-05-07T09:34:25.029Z,65.22
2023-05-07T09:36:29.122Z,65.14
2023-05-07T09:38:32.126Z,65.42
2023-05-07T09:40:34.802Z,65.43
2023-05-07T09:42:37.395Z,65.54
2023-05-07T09:44:41.191Z,65.56
2023-05-07T09:46:45.707Z,65.56
2023-05-07T09:48:50.220Z,65.28
2023-05-07T09:50:58.570Z,65.41
2023-05-07T09:53:03.353Z,65.68
2023-05-07T09:55:07.132Z,65.60
2023-05-07T09:57:11.554Z,64.33
2023-05-07T09:59:16.635Z,64.50
2023-05-07T10:01:20.314Z,64.09
2023-05-07T10:03:24.603Z,64.30
2023-05-07T10:05:28.091Z,64.39
2023-05-07T10:07:31.741Z,64.63
2023-05-07T10:09:39.405Z,64.84
2023-05-07T10:11:43.040Z,64.99
2023-05-07T10:13:46.457Z,65.18
2023-05-07T10:15:51.102Z,65.21
2023-05-07T10:17:55.406Z,65.25
2023-05-07T10:19:58.038Z,65.48
2023-05-07T10:22:06.671Z,63.50
2023-05-07T10:24:15.821Z,62.67
2023-05-07T10:26:23.994Z,62.68
2023-05-07T10:28:28.805Z,63.13
2023-05-07T10:30:40.496Z,61.14
2023-05-07T10:32:47.381Z,61.33
2023-05-07T10:34:55.433Z,61.23
2023-05-07T10:36:58.914Z,61.41
2023-05-07T10:39:01.591Z,61.29
2023-05-07T10:41:06.462Z,60.93
2023-05-07T10:43:11.319Z,59.44
2023-05-07T10:45:15.116Z,59.32
2023-05-07T10:47:19.871Z,59.00
2023-05-07T10:49:24.531Z,59.33
2023-05-07T10:51:27.258Z,59.69
2023-05-07T10:53:29.814Z,59.07
2023-05-07T10:55:32.408Z,59.29
2023-05-07T10:57:36.872Z,59.49
2023-05-07T10:59:43.789Z,59.80
2023-05-07T11:01:55.037Z,59.63
2023-05-07T11:04:16.085Z,59.14
2023-05-07T11:06:18.799Z,59.32
2023-05-07T11:08:21.376Z,58.81
2023-05-07T11:10:24.194Z,58.16
2023-05-07T11:12:48.984Z,58.27
2023-05-07T11:14:54.909Z,58.48
2023-05-07T11:17:04.545Z,58.66
2023-05-07T11:19:07.181Z,58.53
2023-05-07T11:21:10.324Z,58.64
2023-05-07T11:23:58.108Z,58.97
2023-05-07T11:26:01.470Z,58.88
2023-05-07T11:28:08.105Z,59.00
2023-05-07T11:30:18.634Z,59.28
2023-05-07T11:32:24.788Z,59.91
2023-05-07T11:34:28.507Z,61.15
2023-05-07T11:36:34.129Z,64.08
2023-05-07T11:38:37.814Z,63.93
2023-05-07T11:40:50.941Z,64.07
2023-05-07T11:42:53.483Z,63.80
2023-05-07T11:44:56.109Z,63.19
2023-05-07T11:47:01.442Z,63.36
2023-05-07T11:49:04.320Z,63.22
2023-05-07T11:51:09.724Z,63.27
2023-05-07T11:53:14.260Z,63.13
2023-05-07T11:55:20.445Z,63.45
2023-05-07T11:57:23.676Z,64.03
2023-05-07T11:59:26.331Z,64.53
2023-05-07T12:01:29.043Z,64.91
2023-05-07T12:03:36.152Z,65.13
2023-05-07T12:05:42.776Z,65.14
2023-05-07T12:07:45.461Z,65.25
2023-05-07T12:09:48.394Z,65.15
2023-05-07T12:11:51.050Z,64.02
2023-05-07T12:13:58.874Z,64.19
2023-05-07T12:16:04.232Z,64.29
2023-05-07T12:18:07.322Z,64.67
2023-05-07T12:20:12.584Z,64.67
2023-05-07T12:22:15.339Z,64.95
2023-05-07T12:24:21.722Z,65.17
2023-05-07T12:26:25.241Z,65.10
2023-05-07T12:28:27.901Z,65.31
2023-05-07T12:30:33.650Z,64.83
2023-05-07T12:32:38.173Z,64.78
2023-05-07T12:34:45.298Z,64.43
2023-05-07T12:36:50.130Z,64.15
2023-05-07T12:38:52.712Z,64.01
2023-05-07T12:40:56.820Z,64.33
2023-05-07T12:43:01.161Z,64.27
2023-05-07T12:45:10.397Z,63.88
2023-05-07T12:47:13.580Z,63.64
2023-05-07T12:49:16.180Z,63.11
2023-05-07T12:51:19.259Z,62.69
2023-05-07T12:53:25.876Z,63.04
2023-05-07T12:55:32.716Z,62.67
2023-05-07T12:57:41.496Z,62.88
2023-05-07T12:59:44.121Z,63.34
2023-05-07T13:01:47.386Z,63.35
2023-05-07T13:03:51.377Z,62.66
2023-05-07T13:05:58.842Z,62.85
2023-05-07T13:08:01.607Z,62.61
2023-05-07T13:10:06.469Z,62.01
2023-05-07T13:12:11.888Z,62.19
2023-05-07T13:14:14.558Z,62.48
2023-05-07T13:16:17.189Z,63.29
2023-05-07T13:18:19.897Z,63.40
2023-05-07T13:20:22.541Z,63.55
2023-05-07T13:22:25.109Z,63.26
2023-05-07T13:24:27.650Z,63.98
2023-05-07T13:26:33.412Z,64.94
2023-05-07T13:28:36.112Z,65.33
2023-05-07T13:30:38.713Z,66.51
2023-05-07T13:32:41.307Z,66.50
2023-05-07T13:34:43.959Z,67.16
2023-05-07T13:36:46.483Z,68.43
2023-05-07T13:38:49.301Z,69.56
2023-05-07T13:40:51.862Z,70.69
2023-05-07T13:42:56.080Z,71.18
2023-05-07T13:44:58.865Z,71.65
2023-05-07T13:47:01.574Z,72.66
2023-05-07T13:49:04.151Z,73.71
2023-05-07T13:51:06.748Z,74.31
2023-05-07T13:53:10.364Z,73.79
2023-05-07T13:55:13.441Z,74.47
2023-05-07T13:57:16.153Z,75.29
2023-05-07T13:59:20.208Z,75.76
2023-05-07T14:01:22.937Z,75.17
2023-05-07T14:03:25.652Z,75.74
2023-05-07T14:05:29.822Z,75.10
2023-05-07T14:07:32.585Z,75.33
2023-05-07T14:09:35.280Z,76.55
2023-05-07T14:11:38.817Z,77.40
2023-05-07T14:13:41.394Z,77.64
2023-05-07T14:15:47.352Z,77.66
2023-05-07T14:17:49.999Z,76.94
2023-05-07T14:19:54.515Z,77.40
2023-05-07T14:21:59.251Z,77.80
2023-05-07T14:24:02.071Z,78.18
2023-05-07T14:26:04.818Z,78.45
2023-05-07T14:28:08.772Z,78.87
2023-05-07T14:30:12.375Z,79.10
2023-05-07T14:32:16.460Z,79.50
2023-05-07T14:34:19.029Z,79.81
2023-05-07T14:36:23.725Z,80.53
2023-05-07T14:38:26.333Z,80.54
2023-05-07T14:40:29.082Z,80.91
2023-05-07T14:42:31.623Z,80.79
2023-05-07T14:44:34.180Z,79.86
2023-05-07T14:46:36.867Z,80.89
2023-05-07T14:48:40.884Z,81.30
2023-05-07T14:50:43.446Z,81.58
2023-05-07T14:52:45.994Z,81.93
2023-05-07T14:54:48.631Z,82.03
2023-05-07T14:56:51.791Z,81.16
2023-05-07T14:58:54.521Z,80.45
2023-05-07T15:00:57.792Z,80.92
2023-05-07T15:03:07.460Z,81.31
2023-05-07T15:05:11.735Z,81.30
2023-05-07T15:07:15.914Z,80.96
2023-05-07T15:09:18.491Z,80.77
2023-05-07T15:11:21.089Z,80.81
2023-05-07T15:13:23.779Z,81.01
2023-05-07T15:15:26.602Z,81.33
2023-05-07T15:17:29.221Z,81.32
2023-05-07T15:19:31.843Z,81.27
2023-05-07T15:21:36.632Z,80.81
2023-05-07T15:23:39.775Z,80.19
2023-05-07T15:25:42.764Z,79.12
2023-05-07T15:27:45.558Z,78.71
2023-05-07T15:29:48.678Z,78.52
2023-05-07T15:31:51.460Z,78.39
2023-05-07T15:33:55.050Z,78.36
2023-05-07T15:35:59.730Z,78.42
2023-05-07T15:38:04.595Z,77.97
2023-05-07T15:40:08.949Z,77.48
2023-05-07T15:42:11.490Z,77.56
2023-05-07T15:44:14.085Z,76.71
2023-05-07T15:46:21.806Z,76.65
2023-05-07T15:48:24.511Z,76.59
2023-05-07T15:50:27.295Z,76.41
2023-05-07T15:52:30.351Z,76.34
2023-05-07T15:54:34.277Z,76.44
2023-05-07T15:56:36.952Z,76.26
2023-05-07T15:58:39.539Z,74.30
2023-05-07T16:00:42.260Z,73.71
2023-05-07T16:02:45.063Z,74.22
2023-05-07T16:04:47.716Z,74.24
2023-05-07T16:06:50.277Z,73.56
2023-05-07T16:08:52.927Z,73.82
2023-05-07T16:10:56.982Z,74.40
2023-05-07T16:12:59.626Z,75.02
2023-05-07T16:15:02.333Z,74.49
2023-05-07T16:17:05.061Z,74.05
2023-05-07T16:19:07.810Z,74.36
2023-05-07T16:21:10.369Z,74.58
2023-05-07T16:23:13.725Z,73.98
2023-05-07T16:25:16.627Z,74.87
2023-05-07T16:27:20.656Z,74.98
2023-05-07T16:29:23.674Z,75.49
2023-05-07T16:31:26.416Z,75.75
2023-05-07T16:33:28.951Z,76.34
2023-05-07T16:35:31.542Z,76.55
2023-05-07T16:37:34.610Z,76.70
2023-05-07T16:39:38.628Z,77.07
2023-05-07T16:41:41.188Z,77.11
2023-05-07T16:43:45.082Z,77.11
2023-05-07T16:45:48.277Z,77.44
2023-05-07T16:47:50.947Z,77.80
2023-05-07T16:49:53.559Z,78.05
2023-05-07T16:51:56.117Z,78.46
2023-05-07T16:53:58.671Z,77.81
2023-05-07T16:56:05.675Z,78.52
2023-05-07T16:58:09.123Z,78.73
2023-05-07T17:00:14.739Z,78.91
2023-05-07T17:02:17.354Z,77.03
2023-05-07T17:04:19.940Z,78.01
2023-05-07T17:06:22.539Z,77.28
2023-05-07T17:08:25.119Z,77.92
2023-05-07T17:10:28.734Z,78.07
2023-05-07T17:12:31.786Z,78.41
2023-05-07T17:14:34.359Z,78.67
2023-05-07T17:16:38.449Z,77.82
2023-05-07T17:18:41.759Z,78.57
2023-05-07T17:20:44.339Z,78.65
2023-05-07T17:22:47.222Z,78.95
2023-05-07T17:24:49.783Z,78.98
2023-05-07T17:26:52.359Z,78.91
2023-05-07T17:28:54.973Z,79.10
2023-05-07T17:30:57.545Z,79.20
2023-05-07T17:33:12.977Z,78.10
2023-05-07T17:39:26.527Z,79.16
2023-05-07T17:41:29.091Z,79.55
2023-05-07T17:43:31.670Z,79.61
2023-05-07T17:45:34.322Z,79.66
2023-05-07T17:47:39.529Z,80.23
2023-05-07T17:49:43.522Z,80.43
2023-05-07T17:51:54.115Z,80.70
2023-05-07T17:53:58.072Z,80.79
2023-05-07T17:56:00.626Z,80.31
2023-05-07T17:58:03.684Z,80.85
2023-05-07T18:00:09.760Z,80.70
2023-05-07T18:02:12.571Z,81.13
2023-05-07T18:04:15.289Z,81.36
2023-05-07T18:06:20.759Z,81.62
2023-05-07T18:08:23.385Z,81.44
2023-05-07T18:10:26.426Z,81.36
2023-05-07T18:12:29.095Z,81.55
2023-05-07T18:14:31.691Z,81.79
2023-05-07T18:16:35.227Z,81.93
2023-05-07T18:18:37.861Z,81.98
2023-05-07T18:20:40.445Z,82.04
2023-05-07T18:22:44.377Z,82.06
2023-05-07T18:24:46.965Z,82.09
2023-05-07T18:26:49.917Z,82.09
2023-05-07T18:28:52.528Z,82.18
2023-05-07T18:30:55.197Z,82.26
2023-05-07T18:32:57.793Z,82.36
2023-05-07T18:35:00.576Z,82.29
2023-05-07T18:37:03.189Z,82.40
2023-05-07T18:39:08.547Z,82.40
2023-05-07T18:41:11.139Z,82.49
2023-05-07T18:43:13.795Z,82.53
2023-05-07T18:45:16.643Z,82.45
2023-05-07T18:47:19.202Z,82.51
2023-05-07T18:49:21.821Z,82.59
2023-05-07T18:51:24.370Z,82.61
2023-05-07T18:53:26.928Z,82.49
2023-05-07T18:55:31.477Z,82.18
2023-05-07T18:57:34.627Z,81.81
2023-05-07T18:59:37.188Z,81.44
2023-05-07T19:01:39.827Z,80.96
2023-05-07T19:03:42.444Z,81.15
2023-05-07T19:05:45.830Z,80.93
2023-05-07T19:07:48.402Z,80.73
2023-05-07T19:10:03.696Z,81.31
2023-05-07T19:12:09.585Z,81.73
2023-05-07T19:14:12.183Z,81.76
2023-05-07T19:16:14.755Z,81.77
2023-05-07T19:18:17.367Z,81.83
2023-05-07T19:20:20.003Z,81.75
2023-05-07T19:22:22.747Z,81.68
2023-05-07T19:24:25.313Z,81.36
2023-05-07T19:26:27.880Z,81.29
2023-05-07T19:28:31.748Z,81.23
2023-05-07T19:30:34.334Z,81.13
2023-05-07T19:32:36.910Z,81.22
2023-05-07T19:34:39.486Z,81.20
2023-05-07T19:36:42.286Z,81.29
2023-05-07T19:38:45.127Z,81.58
2023-05-07T19:40:47.684Z,81.60
2023-05-07T19:42:50.402Z,81.44
2023-05-07T19:44:54.291Z,81.35
2023-05-07T19:46:57.944Z,81.05
2023-05-07T19:49:01.317Z,80.55
2023-05-07T19:51:03.915Z,80.96
2023-05-07T19:53:06.623Z,81.31
2023-05-07T19:55:09.834Z,81.86
2023-05-07T19:57:12.547Z,82.13
2023-05-07T19:59:15.159Z,82.39
2023-05-07T20:01:19.472Z,82.59
2023-05-07T20:03:22.240Z,82.63
2023-05-07T20:05:25.622Z,82.65
2023-05-07T20:07:28.193Z,82.67
2023-05-07T20:09:30.763Z,82.49
2023-05-07T20:11:33.346Z,82.44
2023-05-07T20:13:35.920Z,82.41
2023-05-07T20:15:38.741Z,81.77
2023-05-07T20:17:42.651Z,81.82
2023-05-07T20:19:45.319Z,82.05
2023-05-07T20:21:47.942Z,82.24
2023-05-07T20:23:51.092Z,82.57
2023-05-07T20:25:53.712Z,82.51
2023-05-07T20:27:57.046Z,82.62
2023-05-07T20:29:59.605Z,82.58
2023-05-07T20:32:02.264Z,82.50
2023-05-07T20:34:06.239Z,82.49
2023-05-07T20:36:08.965Z,82.39
2023-05-07T20:38:11.653Z,82.27
2023-05-07T20:40:15.082Z,82.17
2023-05-07T20:42:17.848Z,82.02
2023-05-07T20:44:23.101Z,81.93
2023-05-07T20:46:28.457Z,82.01
2023-05-07T20:48:32.015Z,82.06
2023-05-07T20:50:35.944Z,82.01
2023-05-07T20:52:38.613Z,81.39
2023-05-07T20:54:41.311Z,81.56
2023-05-07T20:56:43.918Z,81.72
2023-05-07T20:58:46.502Z,81.67
2023-05-07T21:00:49.064Z,81.81
2023-05-07T21:02:51.728Z,81.80
2023-05-07T21:04:54.331Z,82.03
2023-05-07T21:06:58.229Z,82.00
2023-05-07T21:09:00.820Z,82.25
2023-05-07T21:11:03.931Z,82.29
2023-05-07T21:13:06.525Z,82.39
2023-05-07T21:15:10.792Z,82.45
2023-05-07T21:17:13.339Z,82.41
2023-05-07T21:19:15.954Z,81.99
2023-05-07T21:21:18.558Z,82.16
2023-05-07T21:23:22.456Z,82.31
2023-05-07T21:25:25.019Z,82.53
2023-05-07T21:27:29.188Z,82.50
2023-05-07T21:29:31.726Z,82.50
2023-05-07T21:31:34.276Z,82.55
2023-05-07T21:33:36.881Z,82.55
2023-05-07T21:35:39.596Z,82.62
2023-05-07T21:37:42.221Z,82.50
2023-05-07T21:39:46.175Z,82.72
2023-05-07T21:41:48.818Z,82.70
2023-05-07T21:43:51.565Z,82.74
2023-05-07T21:45:54.165Z,82.76
2023-05-07T21:47:57.052Z,82.68
2023-05-07T21:49:59.667Z,82.83
2023-05-07T21:52:02.245Z,82.63
2023-05-07T21:54:05.180Z,82.62
2023-05-07T21:56:09.179Z,82.71
2023-05-07T21:58:11.744Z,82.68
2023-05-07T22:00:15.227Z,82.70
2023-05-07T22:02:18.140Z,82.62
2023-05-07T22:04:21.319Z,82.73
2023-05-07T22:06:25.145Z,82.80
2023-05-07T22:08:27.716Z,82.75
2023-05-07T22:10:30.409Z,82.74
2023-05-07T22:12:34.394Z,82.69
2023-05-07T22:14:36.988Z,82.84
2023-05-07T22:16:40.098Z,82.79
2023-05-07T22:18:43.741Z,82.94
2023-05-07T22:20:46.278Z,82.80
2023-05-07T22:22:52.633Z,82.80
2023-05-07T22:24:55.609Z,82.84
2023-05-07T22:26:58.169Z,83.03
2023-05-07T22:29:02.067Z,82.89
2023-05-07T22:31:04.696Z,83.10
2023-05-07T22:33:07.400Z,82.94
2023-05-07T22:35:11.087Z,82.96
2023-05-07T22:37:13.652Z,83.30
2023-05-07T22:39:16.424Z,83.46
2023-05-07T22:41:19.074Z,83.60
2023-05-07T22:43:21.660Z,83.65
2023-05-07T22:45:25.563Z,83.58
2023-05-07T22:47:30.796Z,83.66
2023-05-07T22:49:35.198Z,83.75
2023-05-07T22:51:37.776Z,83.62
2023-05-07T22:53:43.119Z,83.41
2023-05-07T22:55:45.704Z,83.33
2023-05-07T22:57:48.294Z,83.15
2023-05-07T22:59:54.741Z,83.12
2023-05-07T23:01:58.692Z,82.95
2023-05-07T23:04:01.296Z,83.18
2023-05-07T23:06:03.853Z,83.22
2023-05-07T23:08:07.000Z,83.45
2023-05-07T23:10:10.289Z,83.53
2023-05-07T23:12:13.005Z,83.63
2023-05-07T23:14:15.856Z,83.54
2023-05-07T23:16:18.536Z,83.60
2023-05-07T23:18:22.424Z,83.65
2023-05-07T23:20:24.996Z,83.55
2023-05-07T23:22:27.897Z,83.55
2023-05-07T23:24:30.492Z,83.51
2023-05-07T23:26:35.110Z,83.71
2023-05-07T23:28:37.671Z,83.74
2023-05-07T23:30:41.227Z,83.61
2023-05-07T23:32:43.829Z,83.50
2023-05-07T23:34:51.258Z,83.58
2023-05-07T23:36:54.583Z,83.46
2023-05-07T23:38:57.154Z,83.52
2023-05-07T23:40:59.736Z,83.54
2023-05-07T23:43:02.414Z,83.72
2023-05-07T23:45:05.692Z,83.74
2023-05-07T23:47:08.291Z,83.65
2023-05-07T23:49:10.840Z,83.70
2023-05-07T23:51:14.761Z,83.48
2023-05-07T23:53:17.321Z,83.57
2023-05-07T23:55:19.879Z,83.59
2023-05-07T23:57:22.442Z,83.39
2023-05-07T23:59:25.107Z,83.52
